Terminal Aerodrome Forecast
Issued by NWS Mt. Holly, NJ

Home | Current Version | Previous Version | Text Only | Print | Product List | Glossary On
Versions: 1 2 3 4 5 6 7 8 9 10 11 12 13 14 15 16 17 18 19 20 21 22 23 24 25 26 27 28
513
FTUS41 KPHI 062322
TAFTTN
TAF
KTTN 062322Z 0700/0724 09011KT 2SM -DZ BR OVC004
      TEMPO 0707/0711 1/2SM FG VV002
     FM071200 07005KT 3SM BR OVC009
     FM071700 VRB05KT P6SM BKN025
     FM072100 14004KT P6SM BKN035=

USA.gov is the U.S. government's official web portal to all federal, state and local government web resources and services.